Terminal Aerodrome Forecast
Issued by NWS Northern Indiana

Home | Current Version | Previous Version | Graphics & Text | Print | Product List | Glossary On
Versions: 1 2 3 4 5 6 7 8 9 10 11 12 13 14
000
FTUS43 KIWX 221100
TAFFWA
TAF
KFWA 221123Z 2212/2312 30012G20KT 2SM BR BKN008 OVC012
     FM221300 32017G24KT P6SM BKN015
     FM221400 33019G26KT P6SM SKC
     FM230200 32008KT P6SM SKC=

USA.gov is the U.S. government's official web portal to all federal, state and local government web resources and services.